Main page
METAR-TAF:

METAR-TAF

Airports :

Al Najaf International Airport

Najaf, Iraq

latitude: 31-59-23N, longitude: 44-24-15E, elevation: 31 m

Current weather observation

The report was made 53 minutes ago, at 01:00 UTC
Calm wind
Temperature 2°C
Humidity 75%
Pressure 1026 hPa
Visibility: 7000 m

METAR: ORNI 200100Z 00000KT 7000 NSC 02/M02 Q1026 NOSIG

Time: 04:53 (01:53 UTC)

Forecast

The report was made 2 hours and 53 minutes ago, at 23:00 UTC
Forecast valid from 20 at 00 UTC to 20 at 24 UTC
Wind 6 kt from the West
Visibility: 7000 m

TAF: ORNI 192300Z 2000/2024 28006KT 7000 NSC

Weather observations and forecasts of more than 4000 airports (METAR and TAF reports).

The available stations are represented by yellow and red dots on the map.

Hover mouse over dot to see the name of the station.

Then click to see weather observations and forecasts.

To change the map : click on the green buttons with a black cross to zoom in, on the green button with a dash to zoom out, or on the green arrows for adjacent maps.


METAR-TAF: